Time;durP1;ratioP1;P1;durP2;ratioP2;P2;SDS_P1;SDS_P2;PMS_P1;PMS_P2;Temp;Humidity;BMP_temperature;BMP_pressure;BME280_temperature;BME280_humidity;BME280_pressure;Samples;Min_cycle;Max_cycle;Signal;HPM_P1;HPM_P2
2021/04/26 00:01:37;;;;;;;16.03;5.10;;;;;;;5.09;52.26;99075.75;5052357;28;20037;-62
2021/04/26 00:04:03;;;;;;;17.13;5.03;;;;;;;4.97;52.66;99086.63;5051461;28;20021;-62
2021/04/26 00:06:28;;;;;;;19.73;5.83;;;;;;;5.06;51.95;99080.78;5052489;28;20028;-62
2021/04/26 00:08:54;;;;;;;19.47;7.13;;;;;;;5.06;52.29;99080.78;5051612;28;20059;-62
2021/04/26 00:11:20;;;;;;;24.83;7.37;;;;;;;4.92;52.01;99079.81;5050118;28;20033;-61
2021/04/26 00:13:45;;;;;;;18.07;5.60;;;;;;;4.87;52.83;99076.34;5051899;28;20029;-61
2021/04/26 00:16:11;;;;;;;18.27;5.77;;;;;;;4.84;52.85;99074.63;5049813;28;20275;-62
2021/04/26 00:18:36;;;;;;;16.17;5.07;;;;;;;4.72;53.32;99083.78;5051460;28;20028;-61
2021/04/26 00:21:01;;;;;;;11.63;4.63;;;;;;;4.59;53.87;99078.56;5052568;28;20029;-61
2021/04/26 00:23:27;;;;;;;12.73;4.40;;;;;;;4.50;54.19;99075.91;5051597;28;20454;-61
2021/04/26 00:25:52;;;;;;;15.70;5.83;;;;;;;4.42;54.94;99077.50;5052042;28;20367;-62
2021/04/26 00:28:18;;;;;;;17.40;5.17;;;;;;;4.31;55.12;99079.06;5050345;28;20116;-61
2021/04/26 00:30:43;;;;;;;22.67;6.37;;;;;;;4.29;56.33;99082.41;5051959;28;20033;-62
2021/04/26 00:33:09;;;;;;;26.77;7.80;;;;;;;4.16;56.71;99091.53;5050717;28;20064;-61
2021/04/26 00:35:34;;;;;;;13.07;4.87;;;;;;;4.10;57.17;99083.88;5051948;28;20116;-61
2021/04/26 00:38:00;;;;;;;16.40;5.60;;;;;;;4.05;57.77;99088.88;5051974;28;20368;-61
2021/04/26 00:40:25;;;;;;;14.03;5.13;;;;;;;3.99;57.88;99086.22;5056171;28;20025;-61
2021/04/26 00:42:52;;;;;;;14.97;5.30;;;;;;;4.00;58.45;99080.34;5056099;28;20528;-61
2021/04/26 00:45:22;;;;;;;15.77;5.07;;;;;;;3.98;58.63;99083.69;5054938;28;20040;-61
2021/04/26 00:47:49;;;;;;;18.70;5.93;;;;;;;3.93;58.35;99087.84;5053847;28;20028;-61
2021/04/26 00:50:18;;;;;;;12.73;4.70;;;;;;;3.96;60.01;99088.72;5055606;28;20032;-61
2021/04/26 00:52:43;;;;;;;18.30;5.67;;;;;;;3.87;59.97;99088.59;5054284;28;20044;-61
2021/04/26 00:55:10;;;;;;;16.57;5.63;;;;;;;3.89;60.02;99096.25;5053480;28;20033;-61
2021/04/26 00:57:35;;;;;;;12.47;4.63;;;;;;;3.91;58.95;99097.09;5055278;28;20091;-62
2021/04/26 01:00:03;;;;;;;17.50;4.93;;;;;;;3.97;58.70;99100.59;5055176;28;20286;-61
2021/04/26 01:02:28;;;;;;;24.90;9.33;;;;;;;4.03;58.21;99107.44;5054140;28;20033;-61
2021/04/26 01:04:55;;;;;;;19.43;6.47;;;;;;;4.10;58.57;99110.09;5055981;28;20021;-61
2021/04/26 01:07:22;;;;;;;17.77;7.33;;;;;;;4.09;58.34;99115.13;5054359;28;20040;-62
2021/04/26 01:09:47;;;;;;;21.33;7.30;;;;;;;4.07;57.91;99096.50;5055155;28;20057;-62
2021/04/26 01:12:32;;;;;;;19.00;6.63;;;;;;;4.10;58.20;99109.22;5054533;28;20044;-62
2021/04/26 01:15:15;;;;;;;16.43;6.00;;;;;;;4.08;58.43;99116.81;5054671;28;20039;-61
2021/04/26 01:17:50;;;;;;;13.90;4.87;;;;;;;4.03;58.24;99115.06;5053094;28;20033;-62
2021/04/26 01:20:36;;;;;;;19.23;6.15;;;;;;;4.00;58.27;99110.78;5054660;28;20429;-61
2021/04/26 01:23:39;;;;;;;15.53;4.70;;;;;;;4.07;57.87;99111.75;5053562;28;20119;-61
2021/04/26 01:26:05;;;;;;;22.27;7.53;;;;;;;3.77;58.51;99121.41;5053906;28;20060;-62
2021/04/26 01:28:56;;;;;;;15.23;5.53;;;;;;;3.67;58.99;99118.72;5056088;28;20036;-61
2021/04/26 01:31:36;;;;;;;16.50;5.60;;;;;;;3.50;59.30;99120.13;5052338;28;20028;-62
2021/04/26 01:34:04;;;;;;;18.97;6.57;;;;;;;3.35;60.04;99119.88;5054296;28;20040;-61
2021/04/26 01:36:30;;;;;;;15.70;5.17;;;;;;;3.20;60.13;99119.59;5054591;28;20028;-61
2021/04/26 01:38:58;;;;;;;14.67;4.67;;;;;;;3.12;60.93;99123.69;5052749;28;20028;-62
2021/04/26 01:41:26;;;;;;;22.90;6.87;;;;;;;3.04;61.51;99126.06;5054696;28;20033;-61
2021/04/26 01:43:54;;;;;;;16.90;5.33;;;;;;;2.95;61.27;99128.44;5054349;28;20236;-61
2021/04/26 01:46:21;;;;;;;22.43;6.90;;;;;;;2.93;61.46;99124.16;5027984;28;20117;-60
2021/04/26 01:48:52;;;;;;;16.77;5.63;;;;;;;2.82;61.96;99123.09;5054698;28;20041;-60
2021/04/26 01:51:19;;;;;;;22.37;7.20;;;;;;;2.78;62.34;99132.31;5054506;28;20237;-60
2021/04/26 01:53:47;;;;;;;16.70;5.60;;;;;;;2.74;62.03;99125.47;5054663;28;20040;-60
2021/04/26 01:56:14;;;;;;;20.27;6.87;;;;;;;2.78;61.98;99127.25;5055044;28;20060;-61
2021/04/26 01:58:46;;;;;;;108.77;81.30;;;;;;;2.71;61.86;99133.88;5053205;28;20051;-61
2021/04/26 02:01:17;;;;;;;49.10;43.60;;;;;;;2.82;61.26;99131.53;5051405;28;20029;-62
2021/04/26 02:03:53;;;;;;;18.67;8.50;;;;;;;2.76;62.10;99133.94;5053071;28;20391;-60
2021/04/26 02:06:21;;;;;;;23.27;13.10;;;;;;;2.69;63.05;99129.59;5050632;28;20286;-60
2021/04/26 02:08:47;;;;;;;15.33;7.27;;;;;;;2.66;63.26;99139.66;5054224;28;20406;-60
2021/04/26 02:11:14;;;;;;;28.30;13.30;;;;;;;2.67;63.51;99132.06;5053871;28;20029;-62
2021/04/26 02:13:40;;;;;;;15.17;5.83;;;;;;;2.65;64.15;99126.16;5053110;28;20032;-61
2021/04/26 02:16:06;;;;;;;21.23;6.73;;;;;;;2.66;63.74;99129.53;5053933;28;20301;-62
2021/04/26 02:18:33;;;;;;;12.10;4.67;;;;;;;2.69;63.33;99124.53;5052945;28;20432;-61
2021/04/26 02:20:58;;;;;;;16.70;6.07;;;;;;;2.74;62.52;99118.75;5055583;28;20032;-61
2021/04/26 02:23:25;;;;;;;20.67;6.30;;;;;;;2.70;63.35;99122.03;5053357;28;20355;-61
2021/04/26 02:25:50;;;;;;;22.30;6.50;;;;;;;2.63;63.46;99110.06;5053554;28;20072;-62
2021/04/26 02:28:16;;;;;;;16.30;6.57;;;;;;;2.65;63.62;99097.44;5053031;28;20080;-61
2021/04/26 02:30:41;;;;;;;19.03;6.63;;;;;;;2.64;63.47;99109.25;5054187;28;20084;-61
2021/04/26 02:33:12;;;;;;;19.90;6.73;;;;;;;2.67;62.84;99101.69;5053022;28;20082;-61
2021/04/26 02:35:55;;;;;;;17.43;7.07;;;;;;;2.74;63.03;99090.91;5054425;28;20032;-60
2021/04/26 02:38:37;;;;;;;20.83;7.60;;;;;;;2.90;61.65;99091.16;5052392;28;20036;-61
2021/04/26 02:41:06;;;;;;;17.07;6.30;;;;;;;2.86;61.55;99086.88;5052982;28;20468;-62
2021/04/26 02:43:37;;;;;;;15.13;9.70;;;;;;;2.81;61.67;99060.63;5052222;28;20029;-62
2021/04/26 02:46:04;;;;;;;19.47;6.90;;;;;;;2.93;61.58;99081.94;5052389;28;20090;-62
2021/04/26 02:48:31;;;;;;;21.53;6.30;;;;;;;2.84;62.23;99074.22;5051278;28;20068;-61
2021/04/26 02:50:58;;;;;;;14.57;6.00;;;;;;;2.81;62.05;99083.41;5053038;28;20115;-61
2021/04/26 02:53:26;;;;;;;24.87;6.90;;;;;;;2.86;62.24;99079.28;5052967;28;20449;-61
2021/04/26 02:55:56;;;;;;;19.23;8.30;;;;;;;2.82;62.49;99077.53;5053149;28;20052;-61
2021/04/26 02:58:24;;;;;;;33.23;27.03;;;;;;;2.76;63.06;99068.97;5053226;28;20082;-61
2021/04/26 03:00:51;;;;;;;41.07;29.87;;;;;;;2.70;63.70;99073.94;5051549;28;20378;-61
2021/04/26 03:03:17;;;;;;;33.40;17.20;;;;;;;2.72;63.48;99066.34;5051679;28;20091;-61
2021/04/26 03:05:43;;;;;;;31.87;22.73;;;;;;;2.73;63.09;99063.00;5052675;28;20076;-62
2021/04/26 03:08:10;;;;;;;41.70;24.20;;;;;;;2.81;62.26;99068.22;5053085;28;20075;-61
2021/04/26 03:10:36;;;;;;;37.87;29.47;;;;;;;2.74;62.55;99060.53;5052782;28;20040;-61
2021/04/26 03:13:02;;;;;;;35.63;23.40;;;;;;;2.73;62.73;99057.94;5034517;28;20037;-62
2021/04/26 03:15:29;;;;;;;19.43;6.03;;;;;;;2.73;62.50;99055.41;5052936;28;20037;-62
2021/04/26 03:17:55;;;;;;;22.97;6.77;;;;;;;2.75;62.47;99058.84;5052276;28;20483;-61
2021/04/26 03:20:21;;;;;;;26.43;8.13;;;;;;;2.71;62.63;99049.50;5051695;28;20416;-61
2021/04/26 03:22:48;;;;;;;15.43;5.20;;;;;;;2.70;62.46;99042.72;5054328;28;20115;-59
2021/04/26 03:25:19;;;;;;;18.13;6.33;;;;;;;2.56;63.08;99029.78;5052841;28;20048;-62
2021/04/26 03:27:46;;;;;;;18.10;4.67;;;;;;;2.60;63.31;99048.41;5047722;28;20291;-60
2021/04/26 03:30:15;;;;;;;17.23;7.40;;;;;;;2.59;63.44;99046.72;5035848;28;20025;-62
2021/04/26 03:32:42;;;;;;;13.77;4.67;;;;;;;2.52;63.61;99047.41;5054112;28;20064;-62
2021/04/26 03:35:11;;;;;;;17.40;6.07;;;;;;;2.49;64.18;99039.78;5052472;28;20028;-62
2021/04/26 03:37:38;;;;;;;16.23;6.13;;;;;;;2.43;64.62;99042.16;5053078;28;20033;-62
2021/04/26 03:40:05;;;;;;;20.40;6.27;;;;;;;2.38;63.96;99049.66;5053243;28;20074;-62
2021/04/26 03:42:30;;;;;;;16.53;5.57;;;;;;;2.28;64.62;99052.84;5052109;28;20071;-61
2021/04/26 03:44:56;;;;;;;20.53;6.80;;;;;;;2.18;64.56;99045.88;5053041;28;20037;-61
2021/04/26 03:47:21;;;;;;;30.10;18.83;;;;;;;2.21;64.67;99044.28;5052746;28;20075;-61
2021/04/26 03:49:46;;;;;;;22.30;8.23;;;;;;;2.29;64.16;99052.88;5053841;28;20369;-61
2021/04/26 03:52:12;;;;;;;19.37;6.37;;;;;;;2.23;64.21;99052.75;5052470;28;20116;-61
2021/04/26 03:54:38;;;;;;;16.43;5.50;;;;;;;2.23;64.08;99050.22;5052267;28;20048;-60
2021/04/26 03:57:04;;;;;;;12.17;4.83;;;;;;;2.18;64.40;99049.28;5051432;28;20037;-61
2021/04/26 03:59:30;;;;;;;17.13;5.33;;;;;;;2.11;64.58;99047.44;5051067;28;20094;-60
2021/04/26 04:01:55;;;;;;;17.00;5.57;;;;;;;2.06;65.19;99056.59;5051188;28;20037;-60
2021/04/26 04:04:22;;;;;;;15.93;5.53;;;;;;;1.95;65.51;99060.59;5053214;28;20021;-61
2021/04/26 04:06:47;;;;;;;25.50;7.73;;;;;;;1.86;66.33;99062.06;5051507;28;20033;-61
2021/04/26 04:09:14;;;;;;;24.13;7.90;;;;;;;1.89;66.18;99049.47;5053252;28;20060;-61
2021/04/26 04:11:40;;;;;;;17.40;5.53;;;;;;;1.84;65.83;99052.75;5052287;28;20501;-59
2021/04/26 04:14:05;;;;;;;12.97;5.17;;;;;;;1.89;65.53;99046.94;5055523;28;20038;-61
2021/04/26 04:16:31;;;;;;;21.23;6.77;;;;;;;1.94;65.43;99045.38;5056632;28;20079;-61
2021/04/26 04:18:57;;;;;;;14.10;5.00;;;;;;;1.91;65.23;99038.56;5054053;28;20037;-61
2021/04/26 04:21:23;;;;;;;19.03;5.80;;;;;;;1.91;65.67;99046.13;5055357;28;20103;-61
2021/04/26 04:23:49;;;;;;;13.27;4.87;;;;;;;1.91;65.92;99046.13;5055478;28;20037;-61
2021/04/26 04:26:15;;;;;;;22.97;6.63;;;;;;;1.87;66.03;99035.97;5040670;28;20312;-61
2021/04/26 04:28:40;;;;;;;13.77;5.13;;;;;;;1.87;66.39;99036.78;5055934;28;20048;-61
2021/04/26 04:31:06;;;;;;;16.77;5.43;;;;;;;1.86;66.31;99034.25;5055757;28;20453;-61
2021/04/26 04:33:32;;;;;;;17.33;5.67;;;;;;;2.02;65.56;99034.59;5054865;28;20048;-61
2021/04/26 04:35:57;;;;;;;18.60;7.23;;;;;;;2.09;65.40;99035.56;5055725;28;20083;-61
2021/04/26 04:38:25;;;;;;;23.77;7.13;;;;;;;2.15;65.44;99028.97;5052378;28;20048;-62
2021/04/26 04:40:51;;;;;;;16.70;6.00;;;;;;;2.22;64.79;99024.88;5038920;28;20041;-62
2021/04/26 04:43:16;;;;;;;28.83;7.63;;;;;;;2.29;64.14;99019.16;5044892;28;20039;-61
2021/04/26 04:45:42;;;;;;;29.50;8.90;;;;;;;2.42;63.85;99025.31;5055918;28;20041;-62
2021/04/26 04:48:07;;;;;;;18.23;6.27;;;;;;;2.55;63.42;99020.47;5057067;28;20172;-61
2021/04/26 04:50:33;;;;;;;14.37;5.57;;;;;;;2.60;63.11;99023.97;5054866;28;20075;-61
2021/04/26 04:52:58;;;;;;;12.40;4.60;;;;;;;2.70;62.51;99015.72;5055384;28;20041;-62
2021/04/26 04:55:24;;;;;;;20.10;6.63;;;;;;;2.85;62.47;99027.78;5051701;28;20048;-61
2021/04/26 04:57:49;;;;;;;15.57;5.20;;;;;;;2.96;62.01;99018.72;5056807;28;20048;-61
2021/04/26 05:00:16;;;;;;;30.10;9.10;;;;;;;3.09;61.29;99022.31;5055315;28;20036;-61
2021/04/26 05:02:41;;;;;;;19.50;6.77;;;;;;;3.21;60.84;99023.38;5054435;28;20037;-61
2021/04/26 05:05:07;;;;;;;18.03;6.27;;;;;;;3.28;61.87;99019.25;5054246;28;20400;-61
2021/04/26 05:07:33;;;;;;;11.93;4.50;;;;;;;3.42;61.58;99015.25;5056247;28;20037;-61
2021/04/26 05:09:58;;;;;;;20.93;7.80;;;;;;;3.48;61.31;99022.94;5054547;28;20398;-61
2021/04/26 05:12:24;;;;;;;17.27;6.47;;;;;;;3.60;61.45;99018.06;5038582;28;20045;-61
2021/04/26 05:14:49;;;;;;;26.30;7.00;;;;;;;3.71;61.23;99028.34;5054843;28;20052;-61
2021/04/26 05:17:16;;;;;;;16.17;5.67;;;;;;;3.91;60.74;99024.41;5053779;28;20040;-61
2021/04/26 05:19:42;;;;;;;15.67;5.77;;;;;;;4.04;59.72;99033.88;5054944;28;20390;-61
2021/04/26 05:22:07;;;;;;;13.87;5.03;;;;;;;4.12;59.05;99044.13;5054100;28;20115;-61
2021/04/26 05:24:34;;;;;;;18.80;5.53;;;;;;;4.23;59.78;99060.38;5055400;28;20447;-61
2021/04/26 05:26:59;;;;;;;16.03;4.97;;;;;;;4.37;58.46;99045.31;5053533;28;20348;-61
2021/04/26 05:29:25;;;;;;;16.23;5.70;;;;;;;4.46;57.53;99047.94;5053170;28;20044;-61
2021/04/26 05:31:50;;;;;;;22.93;7.07;;;;;;;4.66;57.67;99040.56;5051994;28;20025;-62
2021/04/26 05:34:15;;;;;;;16.10;5.37;;;;;;;4.84;56.51;99033.97;5053706;28;20030;-61
2021/04/26 05:36:41;;;;;;;15.70;5.57;;;;;;;5.08;56.13;99035.91;5052310;28;20115;-62
2021/04/26 05:39:06;;;;;;;20.97;6.27;;;;;;;5.19;54.55;99041.94;5054556;28;20535;-61
2021/04/26 05:41:32;;;;;;;25.57;8.17;;;;;;;5.34;53.30;99043.78;5053799;28;20032;-61
2021/04/26 05:43:57;;;;;;;14.90;5.10;;;;;;;5.45;53.55;99037.06;5053437;28;20033;-61
2021/04/26 05:46:23;;;;;;;17.60;5.97;;;;;;;5.65;51.98;99037.22;5051453;28;20268;-60
2021/04/26 05:48:49;;;;;;;28.27;8.60;;;;;;;5.91;51.19;99033.19;5052694;28;20033;-61
2021/04/26 05:51:14;;;;;;;15.33;5.60;;;;;;;6.09;51.20;99037.53;5052126;28;20099;-61
2021/04/26 05:53:42;;;;;;;29.53;12.03;;;;;;;6.38;50.48;99030.88;5037340;28;20037;-61
2021/04/26 05:56:08;;;;;;;28.67;18.37;;;;;;;6.58;49.18;99026.69;5037799;28;20408;-61
2021/04/26 05:58:34;;;;;;;14.67;4.67;;;;;;;6.83;47.55;99032.75;5053391;28;20041;-62
2021/04/26 06:01:00;;;;;;;15.00;4.73;;;;;;;6.95;47.44;99029.34;5053638;28;20113;-61
2021/04/26 06:03:25;;;;;;;20.23;6.20;;;;;;;7.09;47.26;99025.97;5054346;28;20037;-62
2021/04/26 06:05:51;;;;;;;16.57;5.53;;;;;;;7.26;48.03;99023.44;5033972;28;20051;-62
2021/04/26 06:08:17;;;;;;;40.00;23.13;;;;;;;7.32;46.50;99023.44;5050687;28;20108;-62
2021/04/26 06:10:42;;;;;;;14.03;5.60;;;;;;;7.46;46.36;99016.66;5038457;28;20115;-61
2021/04/26 06:13:07;;;;;;;20.67;8.03;;;;;;;7.43;45.96;99008.97;5051228;28;20040;-60
2021/04/26 06:15:33;;;;;;;23.50;7.47;;;;;;;7.65;45.56;99009.81;5052063;28;20033;-61
2021/04/26 06:18:12;;;;;;;30.63;9.00;;;;;;;7.82;45.11;99001.28;5053660;28;20036;-61
2021/04/26 06:20:42;;;;;;;14.67;5.97;;;;;;;7.71;45.79;99004.72;5052736;28;20033;-62
2021/04/26 06:23:08;;;;;;;17.27;6.17;;;;;;;7.76;46.15;99005.56;5053554;28;20094;-61
2021/04/26 06:25:35;;;;;;;14.17;5.57;;;;;;;7.89;45.86;98997.03;5036222;28;20029;-62
2021/04/26 06:28:01;;;;;;;17.67;6.87;;;;;;;7.85;46.06;98982.53;5052501;28;20032;-61
2021/04/26 06:30:26;;;;;;;29.23;8.83;;;;;;;7.99;45.87;98982.50;5052004;28;20043;-61
2021/04/26 06:32:52;;;;;;;19.30;6.80;;;;;;;7.96;45.53;98983.38;5053537;28;20025;-61
2021/04/26 06:35:17;;;;;;;12.57;5.17;;;;;;;8.14;45.62;98993.53;5052984;28;20298;-61
2021/04/26 06:37:43;;;;;;;18.53;6.23;;;;;;;8.14;45.28;98983.34;5053476;28;20036;-62
2021/04/26 06:40:09;;;;;;;12.57;5.63;;;;;;;8.22;45.04;98984.16;5052418;28;20045;-62
2021/04/26 06:42:34;;;;;;;19.33;7.43;;;;;;;8.16;44.69;98983.31;5053175;28;20402;-61
2021/04/26 06:45:00;;;;;;;28.03;9.10;;;;;;;8.30;45.24;98981.59;5052724;28;20127;-61
2021/04/26 06:47:25;;;;;;;18.43;6.27;;;;;;;8.32;44.83;98982.41;5053775;28;20048;-62
2021/04/26 06:49:50;;;;;;;21.40;6.37;;;;;;;8.28;44.73;98978.13;5051444;28;20043;-62
2021/04/26 06:52:16;;;;;;;18.47;7.07;;;;;;;8.48;44.90;98980.66;5054163;28;20158;-62
2021/04/26 06:54:42;;;;;;;28.00;8.53;;;;;;;8.46;44.63;98970.44;5052217;28;20094;-62
2021/04/26 06:57:07;;;;;;;13.20;5.67;;;;;;;8.57;43.99;98968.66;5049331;28;20382;-62
2021/04/26 06:59:33;;;;;;;27.70;9.20;;;;;;;8.62;43.74;98971.19;5051078;28;20330;-62
2021/04/26 07:01:58;;;;;;;24.17;7.83;;;;;;;8.76;44.54;98968.56;5052411;28;20131;-62
2021/04/26 07:04:23;;;;;;;25.37;7.40;;;;;;;8.89;44.66;98967.63;5033576;28;20040;-62
2021/04/26 07:06:49;;;;;;;22.97;7.40;;;;;;;8.94;43.94;98960.78;5048245;28;20120;-61
2021/04/26 07:09:14;;;;;;;20.53;7.60;;;;;;;9.18;43.43;98958.88;5046461;28;20102;-61
2021/04/26 07:11:41;;;;;;;16.03;5.60;;;;;;;9.29;43.18;98956.25;5047996;28;20303;-61
2021/04/26 07:14:06;;;;;;;20.37;7.33;;;;;;;9.45;42.84;98959.50;5050866;28;20371;-61
2021/04/26 07:16:32;;;;;;;28.63;8.97;;;;;;;9.46;41.18;98953.53;5049669;28;20039;-61
2021/04/26 07:18:57;;;;;;;18.00;6.07;;;;;;;9.59;40.41;98948.25;5052559;28;20502;-61
2021/04/26 07:21:23;;;;;;;22.40;7.53;;;;;;;9.83;39.79;98949.72;5052094;28;20049;-61
2021/04/26 07:23:48;;;;;;;24.07;8.73;;;;;;;9.71;37.75;98944.72;5038948;28;20025;-61
2021/04/26 07:26:14;;;;;;;13.37;4.90;;;;;;;9.98;38.16;98943.56;5050230;28;20040;-61
2021/04/26 07:28:39;;;;;;;28.07;8.37;;;;;;;9.95;38.32;98935.91;5050428;28;20129;-61
2021/04/26 07:31:05;;;;;;;19.67;6.07;;;;;;;10.01;38.42;98933.31;5053241;28;20112;-61
2021/04/26 07:33:30;;;;;;;20.00;6.10;;;;;;;10.02;37.53;98934.97;5048672;28;20128;-62
2021/04/26 07:35:55;;;;;;;15.20;4.30;;;;;;;10.20;37.78;98936.50;5053245;28;20029;-61
2021/04/26 07:38:21;;;;;;;18.73;6.37;;;;;;;10.24;37.54;98935.59;5050254;28;20033;-62
2021/04/26 07:40:47;;;;;;;13.53;5.33;;;;;;;10.39;36.73;98935.41;5052932;28;20438;-61
2021/04/26 07:43:12;;;;;;;7.77;3.83;;;;;;;10.38;36.37;98937.13;5050719;28;20393;-62
2021/04/26 07:45:38;;;;;;;8.40;3.90;;;;;;;10.58;36.98;98929.16;5053054;28;20675;-62
2021/04/26 07:48:04;;;;;;;6.23;3.23;;;;;;;10.77;36.93;98927.19;5051873;28;20040;-61
2021/04/26 07:50:29;;;;;;;5.93;3.57;;;;;;;10.87;36.10;98916.75;5051408;28;20111;-61
2021/04/26 07:52:55;;;;;;;5.30;3.10;;;;;;;10.94;35.93;98912.38;5053047;28;20033;-61
2021/04/26 07:55:20;;;;;;;8.20;4.07;;;;;;;10.80;36.92;98904.88;5052085;28;20020;-61
2021/04/26 07:57:46;;;;;;;10.63;5.20;;;;;;;10.99;37.23;98913.13;5051883;28;20040;-61
2021/04/26 08:00:12;;;;;;;16.30;6.70;;;;;;;11.14;36.41;98906.91;5050429;28;20037;-61
2021/04/26 08:02:37;;;;;;;13.20;4.97;;;;;;;11.15;35.94;98896.63;5052162;28;20025;-61
2021/04/26 08:05:04;;;;;;;19.90;6.37;;;;;;;11.02;37.98;98894.28;5050987;28;20029;-61
2021/04/26 08:07:29;;;;;;;13.53;5.23;;;;;;;11.13;36.82;98884.69;5050638;28;20299;-61
2021/04/26 08:09:54;;;;;;;24.57;7.00;;;;;;;11.25;36.29;98881.88;5051111;28;20059;-61
2021/04/26 08:12:20;;;;;;;13.50;4.87;;;;;;;11.37;36.88;98885.09;5051755;28;20529;-61
2021/04/26 08:14:47;;;;;;;16.20;5.53;;;;;;;11.46;35.64;98871.22;5048025;28;20033;-61
2021/04/26 08:17:13;;;;;;;14.77;5.43;;;;;;;11.51;35.45;98869.44;5051708;28;20135;-61
2021/04/26 08:19:38;;;;;;;11.73;4.83;;;;;;;11.61;36.01;98870.97;5051492;28;20131;-61
2021/04/26 08:22:04;;;;;;;13.32;5.43;;;;;;;11.71;36.13;98857.03;5049276;28;20092;-61
2021/04/26 08:24:29;;;;;;;16.10;5.50;;;;;;;11.81;34.49;98861.16;5051640;28;20104;-61
2021/04/26 08:26:56;;;;;;;15.70;6.28;;;;;;;11.86;35.65;98854.22;5050640;28;20036;-61
2021/04/26 08:29:22;;;;;;;15.00;5.83;;;;;;;11.93;35.74;98852.34;5050416;28;20382;-61
2021/04/26 08:31:47;;;;;;;14.75;5.43;;;;;;;11.98;33.90;98853.09;5051436;28;20033;-61
2021/04/26 08:34:13;;;;;;;11.35;4.53;;;;;;;11.97;35.46;98853.13;5051587;28;20146;-61
2021/04/26 08:36:39;;;;;;;14.48;5.55;;;;;;;12.04;35.17;98841.88;5050789;28;20104;-61
2021/04/26 08:39:04;;;;;;;12.57;5.55;;;;;;;12.19;34.76;98852.66;5050817;28;20043;-62
2021/04/26 08:41:30;;;;;;;16.50;5.35;;;;;;;12.14;33.70;98841.63;5051674;28;20333;-61
2021/04/26 08:43:55;;;;;;;12.40;4.60;;;;;;;11.99;34.03;98834.25;5034712;28;20025;-61
2021/04/26 08:46:21;;;;;;;20.00;6.85;;;;;;;12.20;34.60;98836.34;5052872;28;20370;-61
2021/04/26 08:48:46;;;;;;;13.73;5.00;;;;;;;12.41;33.52;98835.03;5050290;28;20102;-61
2021/04/26 08:51:12;;;;;;;11.73;5.40;;;;;;;12.50;33.32;98827.09;5052587;28;20029;-61
2021/04/26 08:53:37;;;;;;;13.38;4.78;;;;;;;12.70;33.24;98824.03;5052032;28;20271;-61
2021/04/26 08:56:07;;;;;;;12.10;4.63;;;;;;;12.83;33.31;98815.97;5049071;28;20066;-60
2021/04/26 08:58:33;;;;;;;16.95;6.18;;;;;;;12.87;33.93;98814.16;5051102;28;20319;-61
2021/04/26 09:00:59;;;;;;;13.57;5.10;;;;;;;12.86;32.83;98817.63;5040532;28;20033;-60
2021/04/26 09:03:35;;;;;;;14.77;5.72;;;;;;;12.79;31.66;98814.38;5054942;28;20032;-60
2021/04/26 09:06:00;;;;;;;14.77;5.25;;;;;;;12.69;33.02;98812.91;5053185;28;20036;-61
2021/04/26 09:08:28;;;;;;;16.30;5.68;;;;;;;12.83;33.15;98807.41;5053076;28;20039;-61
2021/04/26 09:10:59;;;;;;;17.73;6.30;;;;;;;13.07;32.16;98796.47;5053833;28;20024;-61
2021/04/26 09:13:49;;;;;;;12.82;5.05;;;;;;;13.36;31.81;98792.34;5053530;28;20058;-61
2021/04/26 09:16:21;;;;;;;14.98;5.60;;;;;;;13.36;30.93;98800.06;5038290;28;20137;-61
2021/04/26 09:19:00;;;;;;;12.27;4.82;;;;;;;13.35;30.64;98795.78;5054813;28;20047;-62
2021/04/26 09:21:36;;;;;;;16.65;6.43;;;;;;;13.46;31.86;98794.59;5051228;28;20033;-62
2021/04/26 09:24:13;;;;;;;14.20;5.72;;;;;;;13.77;31.80;98802.31;5054105;28;20120;-62
2021/04/26 09:26:38;;;;;;;10.65;4.28;;;;;;;14.25;31.27;98815.47;5054603;28;20025;-61
2021/04/26 09:29:32;;;;;;;12.65;4.78;;;;;;;14.71;29.61;98795.97;5055086;28;20419;-62
2021/04/26 09:32:09;;;;;;;10.18;4.45;;;;;;;14.94;29.57;98799.47;5037490;28;20451;-62
2021/04/26 09:34:39;;;;;;;13.45;5.47;;;;;;;14.61;30.10;98787.69;5052874;28;20037;-61
2021/04/26 09:37:18;;;;;;;10.63;4.68;;;;;;;14.34;30.72;98788.56;5054459;28;20033;-61
2021/04/26 09:40:07;;;;;;;15.23;5.28;;;;;;;14.41;30.88;98795.22;5054968;28;20021;-61
2021/04/26 09:42:41;;;;;;;13.93;4.85;;;;;;;14.05;31.79;98805.75;5054007;28;20037;-62
2021/04/26 09:45:21;;;;;;;18.65;5.22;;;;;;;13.77;34.58;98804.03;5054978;28;20108;-62
2021/04/26 09:48:06;;;;;;;15.18;5.43;;;;;;;13.48;35.85;98817.75;5054051;28;20063;-61
2021/04/26 09:50:32;;;;;;;9.85;4.90;;;;;;;13.10;35.71;98819.63;5037921;28;20103;-61
2021/04/26 09:53:08;;;;;;;14.07;5.25;;;;;;;12.93;36.40;98826.06;5050980;28;20457;-62
2021/04/26 09:55:34;;;;;;;13.63;5.25;;;;;;;12.09;38.81;98829.75;5054425;28;20052;-62
2021/04/26 09:58:02;;;;;;;19.30;6.20;;;;;;;12.01;39.36;98837.63;5054941;28;20040;-62
2021/04/26 10:00:27;;;;;;;16.98;6.68;;;;;;;11.94;39.35;98836.06;5055655;28;20137;-62
2021/04/26 10:02:53;;;;;;;14.07;4.97;;;;;;;11.45;39.70;98833.63;5053121;28;20056;-61
2021/04/26 10:05:19;;;;;;;17.40;6.30;;;;;;;11.33;40.57;98831.28;5053651;28;20300;-61
2021/04/26 10:07:45;;;;;;;15.23;5.17;;;;;;;11.39;41.22;98824.31;5052081;28;20025;-61
2021/04/26 10:10:10;;;;;;;17.60;6.30;;;;;;;11.18;41.19;98821.28;5049850;28;20057;-61
2021/04/26 10:12:36;;;;;;;19.20;6.53;;;;;;;11.20;42.20;98830.66;5053463;28;20033;-61
2021/04/26 10:15:02;;;;;;;16.60;5.87;;;;;;;11.16;42.29;98828.19;5052228;28;20333;-61
2021/04/26 10:17:28;;;;;;;18.77;6.43;;;;;;;10.49;42.95;98829.31;5051767;28;20056;-61
2021/04/26 10:19:53;;;;;;;20.70;6.93;;;;;;;10.39;44.20;98830.34;5052877;28;20773;-61
2021/04/26 10:22:40;;;;;;;19.67;6.63;;;;;;;10.13;45.00;98823.00;5054357;28;20041;-61
2021/04/26 10:25:07;;;;;;;16.67;5.60;;;;;;;10.31;45.02;98814.22;5052055;28;20021;-61
2021/04/26 10:27:35;;;;;;;24.27;7.80;;;;;;;10.36;45.11;98810.72;5053035;28;20473;-61
2021/04/26 10:30:02;;;;;;;27.47;8.60;;;;;;;10.41;44.90;98810.63;5052201;28;20074;-62
2021/04/26 10:32:28;;;;;;;13.20;5.03;;;;;;;10.61;44.03;98800.09;5054316;28;20091;-61
2021/04/26 10:34:54;;;;;;;24.83;7.73;;;;;;;10.84;43.49;98803.09;5052439;28;20449;-62
2021/04/26 10:37:21;;;;;;;20.20;6.73;;;;;;;11.07;43.41;98805.25;5052194;28;20064;-61
2021/04/26 10:39:59;;;;;;;13.40;5.07;;;;;;;11.10;43.97;98797.50;5052660;28;20476;-61
2021/04/26 10:42:51;;;;;;;14.57;5.93;;;;;;;11.12;43.46;98796.59;5053800;28;20305;-61
2021/04/26 10:45:22;;;;;;;17.93;6.50;;;;;;;11.28;42.90;98792.88;5053811;28;20021;-61
2021/04/26 10:48:04;;;;;;;18.27;6.63;;;;;;;11.54;42.57;98782.09;5053421;28;20029;-61
2021/04/26 10:50:34;;;;;;;16.77;6.33;;;;;;;11.58;42.31;98783.72;5053495;28;20332;-61
2021/04/26 10:53:01;;;;;;;14.60;5.30;;;;;;;11.43;42.83;98777.16;5051803;28;20075;-61
2021/04/26 10:55:26;;;;;;;17.13;6.67;;;;;;;11.49;43.21;98772.78;5036737;28;20059;-61
2021/04/26 10:57:59;;;;;;;17.20;6.23;;;;;;;11.88;41.70;98765.09;5050770;28;20025;-61
2021/04/26 11:00:28;;;;;;;19.00;5.93;;;;;;;12.17;40.89;98758.47;5052407;28;20037;-61
2021/04/26 11:03:00;;;;;;;18.03;5.73;;;;;;;12.25;42.75;98762.56;5037600;28;20056;-61
2021/04/26 11:05:29;;;;;;;17.80;6.43;;;;;;;12.65;42.50;98757.25;5051900;28;20419;-61
2021/04/26 11:08:01;;;;;;;18.00;5.07;;;;;;;13.00;40.79;98747.78;5052006;28;20105;-62
2021/04/26 11:10:34;;;;;;;19.05;6.75;;;;;;;13.39;39.94;98753.59;5052047;28;20052;-62
2021/04/26 11:13:31;;;;;;;12.77;5.45;;;;;;;13.41;41.84;98759.56;5052427;28;20390;-61
2021/04/26 11:16:06;;;;;;;14.98;5.20;;;;;;;13.80;37.61;98744.66;5053219;28;20238;-61
2021/04/26 11:18:34;;;;;;;18.85;5.40;;;;;;;13.85;38.05;98732.50;5053211;28;20040;-61
2021/04/26 11:21:00;;;;;;;14.18;5.50;;;;;;;13.84;40.70;98733.38;5050308;28;20036;-61
2021/04/26 11:23:56;;;;;;;20.40;7.63;;;;;;;13.54;38.32;98735.97;5050052;28;20493;-61
2021/04/26 11:26:23;;;;;;;21.13;6.80;;;;;;;12.79;41.24;98723.47;5027733;28;20392;-61
2021/04/26 11:29:08;;;;;;;15.70;6.68;;;;;;;12.99;41.54;98721.19;5052364;28;20036;-61
2021/04/26 11:31:40;;;;;;;18.27;6.55;;;;;;;12.70;40.86;98722.00;5050733;28;20056;-61
2021/04/26 11:34:05;;;;;;;17.20;6.18;;;;;;;13.03;39.33;98704.78;5049587;28;20033;-61